Contact Us:
Email: info@sawbill.com
Phone: (218)663-7150
Fax: (218)663-7980
Mail: 4620 Sawbill Trail
Box 2129
Tofte, MN 55615


Powered by
Movable Type 3.15
 
Sawbill Weather History Archives: August 2005
Current Sawbill Weather History | « July 2005 | September 2005 »


Date

High
Temperature

Low
Temperature

Barometric
Pressure

Relative
Humidity 7AM

9 AM
Temperature

Moisture

Snow

8/31/05 74 50 29.75 44% 52 0
8/30/05 69 49 29.96 84% 50 0
8/29/05 62 54 29.98 85% 54 0
8/28/05 70 56 29.88 87% 56 .24"
8/27/05 76 54 29.79 89% 57 .18"
8/26/05 67 51 29.76 88% 54 .24"
8/25/05 74 56 29.95 89% 62 0
8/24/05 72 47 30.17 88% 53 0
8/23/05 76 46 30.23 79% 47 0
8/22/05 77 41 30.25 82% 46 0
8/21/05 64 50 30.20 83% 50 0
8/20/05 73 51 30.01 79% 52 .06"
8/19/05 72 52 29.90 87% 54 0
8/18/05 77 58 29.92 90% 62 0
8/17/05 66 49 29.91 90% 58 .47"
8/16/05 78 49 30.12 79% 49 0
8/15/05 77 57 30.15 83% 58 .21"
8/14/05 73 53 30.13 65% 57 0
8/13/05 70 50 30.10 86% 53 0
8/12/05 77 51 30.00 82% 52 0
8/11/05 73 52 29.82 86% 60 .18"
8/10/05 77 48 30.08 85% 50 0
8/9/05 77 57 30.06 74% 61 .25"
8/8/05 94 65 30.01 82% 65 0
8/7/05 95 60 29.92 86% 66 0
8/6/05 91 54 30.02 71% 66 0
8/5/05 86 54 30.10 63% 60 0
8/4/05 81 56 29.98 86% 55 0
8/3/05 81 61 29.94 86% 61 0
8/2/05 81 65 29.89 89% 65 0
8/1/05 91 62 29.97 65% 68 0
 


Home I Trip Planning I Rentals and Outfitting I Reservations I Campgrounds I Sawbill Store I Sawbill News I Contact

© 1997 - 2017, Sawbill Canoe Outfitters, Inc. I Privacy Policy